Fort Lauderdale, FL

12:51 PM EDT on August 03, 2015 (GMT -0400)
HT Birch State Park WeatherSTEM | | Change Station
CLOSE
Current Station
Personal Weather Station
Location: Fort Lauderdale, FL
Elevation: 29 ft
Nearby Weather Stations

Elev 29 ft 26.15 °N, 80.11 °W | Updated 6 minutes ago

Mostly Cloudy
Mostly Cloudy
91.3 °F
Feels Like 107 °F
N
2.0
Wind Variable Wind from East
Gusts 8.0 mph

Today
High -- | Low -- °F
--% Chance of Precip.
Yesterday
High -- | Low -- °F
Precip. -- in
6:47 AM 8:05 PM
Waning Gibbous, 85% visible
Pressure 30.03 in
Visibility 10.0 miles
Clouds Scattered Clouds 4100 ft
Heat Index 107 °F
Dew Point 78 °F
Humidity 66%
Rainfall 0.00 in
Snow Depth Not available.
UV 7.9 out of 12
Pollen 3.40 out of 12
Air Quality Not available.
Flu Activity Not available.
METAR KFXE 031553Z 25007KT 10SM SCT041 32/23 A3002 RMK AO2 SLP167 T03170228

More Conditions Fewer Conditions

Pressure 30.03 in
Visibility 10.0 miles
Clouds Scattered Clouds 4100 ft
Heat Index 107 °F
Dew Point 78 °F
Humidity 66%
Rainfall 0.00 in
Snow Depth Not available.
UV 7.9 out of 12
Pollen 3.40 out of 12
Air Quality Not available.
Flu Activity Not available.
METAR KFXE 031553Z 25007KT 10SM SCT041 32/23 A3002 RMK AO2 SLP167 T03170228

More Conditions Fewer Conditions

10-Day Weather Forecast

×

Almanac

Astronomy

Aug. 03, 2015 Rise Set
Actual Time
Civil Twilight
Nautical Twilight
Astronomical Twilight
Moon
Length of Visible Light
Length of Day
Tomorrow will be .
, % of the Moon is Illuminated

Today's Extremes

State Highs State Lows

Community

WunderPhotos

Upload Photos

1,843,674 photos uploaded!

WunderBlogs® & News

Nearby

Air Quality

  Air Quality AQ Index Pollutant
Not available.

Snow Depth

Station Depth Elevation

Earthquake Activity

City Distance Mag. Time & Date
Minimum magnitude displayed is 2.5.

Coastal Water Temperatures

Place Temperature

Stations

Nearby Weather Stations

Station Location Temp. Windchill Dew Point Humidity Wind Precip. Elev Updated Type